Reed, Ohio
Current Conditions -  °F | °C
As of 3:52 PM on Sunday 21 Dec 2014 (Local Time) from KMFD Reporting Station
Clear Clear  
Wind Chill: 29°   Ceiling: Unl
Heat Index: 34°   Visibility: 9mi
Dew Point: 22°   Wind: 6mph
Humidity: 61%   Direction: 140°SE
Pressure: 30.2"   Gusts: NA
Location:  41.0654°N, 82.876°W
Report Text: KMFD 212052Z 14005KT 9SM CLR 01/M06 A3020 RMK AO2 SLP242 T00111056 55012
Loading
Personal Weather Stations






























Interactive Weather Map New forecast layout! Learn more

10-Day Weather Forecast

Advertisements
Track Severe Weather on mobile